createdAt,value
2023-06-04T00:01:25.494Z,60.81
2023-06-04T00:04:28.157Z,61.87
2023-06-04T00:07:30.903Z,62.22
2023-06-04T00:10:34.846Z,64.34
2023-06-04T00:13:37.330Z,65.03
2023-06-04T00:16:39.890Z,64.41
2023-06-04T00:19:42.545Z,64.46
2023-06-04T00:22:45.241Z,64.87
2023-06-04T00:25:47.871Z,64.72
2023-06-04T00:28:50.400Z,64.68
2023-06-04T00:31:52.977Z,64.66
2023-06-04T00:34:56.569Z,65.00
2023-06-04T00:37:59.018Z,65.22
2023-06-04T00:41:01.460Z,64.84
2023-06-04T00:44:07.806Z,64.60
2023-06-04T00:47:10.714Z,64.45
2023-06-04T00:50:14.543Z,64.08
2023-06-04T00:53:17.677Z,63.61
2023-06-04T00:56:20.443Z,62.89
2023-06-04T00:59:23.129Z,62.79
2023-06-04T01:02:28.802Z,63.13
2023-06-04T01:05:40.083Z,64.46
2023-06-04T01:08:44.615Z,64.82
2023-06-04T01:11:47.074Z,64.31
2023-06-04T01:14:49.687Z,63.92
2023-06-04T01:17:58.684Z,63.81
2023-06-04T01:21:08.465Z,63.48
2023-06-04T01:24:11.134Z,63.75
2023-06-04T01:27:13.747Z,63.51
2023-06-04T01:30:17.304Z,63.36
2023-06-04T01:33:21.299Z,63.16
2023-06-04T01:36:24.037Z,63.33
2023-06-04T01:39:26.755Z,63.31
2023-06-04T01:42:29.189Z,63.52
2023-06-04T01:45:32.256Z,63.92
2023-06-04T01:48:35.006Z,64.53
2023-06-04T01:51:38.202Z,63.89
2023-06-04T01:54:41.926Z,64.34
2023-06-04T01:57:45.991Z,64.50
2023-06-04T02:00:50.908Z,64.62
2023-06-04T02:03:53.862Z,64.32
2023-06-04T02:06:57.808Z,63.99
2023-06-04T02:10:00.316Z,64.17
2023-06-04T02:13:04.429Z,63.63
2023-06-04T02:16:07.297Z,65.25
2023-06-04T02:19:09.856Z,65.09
2023-06-04T02:22:13.324Z,64.40
2023-06-04T02:25:16.629Z,64.47
2023-06-04T02:28:19.269Z,64.05
2023-06-04T02:31:22.401Z,64.13
2023-06-04T02:34:26.000Z,65.05
2023-06-04T02:37:28.460Z,64.29
2023-06-04T02:40:30.903Z,63.56
2023-06-04T02:43:33.740Z,63.62
2023-06-04T02:46:36.229Z,65.49
2023-06-04T02:49:39.117Z,66.43
2023-06-04T02:52:43.992Z,67.00
2023-06-04T02:55:47.127Z,66.63
2023-06-04T02:58:54.643Z,66.77
2023-06-04T03:01:57.382Z,66.19
2023-06-04T03:04:59.922Z,66.64
2023-06-04T03:08:03.758Z,66.28
2023-06-04T03:11:06.850Z,66.33
2023-06-04T03:14:09.466Z,65.61
2023-06-04T03:17:12.460Z,65.05
2023-06-04T03:20:14.951Z,64.54
2023-06-04T03:23:17.697Z,63.74
2023-06-04T03:26:20.181Z,63.12
2023-06-04T03:29:22.672Z,62.33
2023-06-04T03:32:27.053Z,61.80
2023-06-04T03:35:30.134Z,61.17
2023-06-04T03:38:32.647Z,60.94
2023-06-04T03:41:35.659Z,60.20
2023-06-04T03:44:38.200Z,59.51
2023-06-04T03:47:41.764Z,59.14
2023-06-04T03:50:47.203Z,58.51
2023-06-04T03:53:50.849Z,58.09
2023-06-04T03:56:53.473Z,58.16
2023-06-04T03:59:56.554Z,57.90
2023-06-04T04:02:59.663Z,58.34
2023-06-04T04:06:04.892Z,58.01
2023-06-04T04:09:08.034Z,58.01
2023-06-04T04:12:12.054Z,57.31
2023-06-04T04:15:14.657Z,56.79
2023-06-04T04:18:20.983Z,56.65
2023-06-04T04:21:24.406Z,56.88
2023-06-04T04:24:28.279Z,57.38
2023-06-04T04:27:39.761Z,57.06
2023-06-04T04:30:45.565Z,55.77
2023-06-04T04:33:48.968Z,55.96
2023-06-04T04:36:53.884Z,56.73
2023-06-04T04:39:58.406Z,56.30
2023-06-04T04:43:03.683Z,56.41
2023-06-04T04:46:07.326Z,56.32
2023-06-04T04:49:10.327Z,56.92
2023-06-04T04:52:12.743Z,57.50
2023-06-04T04:55:17.440Z,58.20
2023-06-04T04:58:22.850Z,57.58
2023-06-04T05:01:26.842Z,56.25
2023-06-04T05:04:30.182Z,55.13
2023-06-04T05:07:33.082Z,54.29
2023-06-04T05:10:37.147Z,52.67
2023-06-04T05:13:42.624Z,50.22
2023-06-04T05:16:47.013Z,49.44
2023-06-04T05:19:49.682Z,49.45
2023-06-04T05:22:52.872Z,50.80
2023-06-04T05:25:57.090Z,50.60
2023-06-04T05:28:59.798Z,49.07
2023-06-04T05:32:05.875Z,47.87
2023-06-04T05:35:09.376Z,47.90
2023-06-04T05:38:18.460Z,46.58
2023-06-04T05:41:24.893Z,46.60
2023-06-04T05:44:27.894Z,46.82
2023-06-04T05:47:31.152Z,45.84
2023-06-04T05:50:34.423Z,46.15
2023-06-04T05:53:37.819Z,45.77
2023-06-04T05:56:40.454Z,44.57
2023-06-04T05:59:43.226Z,44.31
2023-06-04T06:02:53.834Z,43.44
2023-06-04T06:06:14.068Z,40.86
2023-06-04T06:09:19.865Z,42.22
2023-06-04T06:12:22.519Z,39.44
2023-06-04T06:15:24.994Z,37.61
2023-06-04T06:18:28.853Z,38.01
2023-06-04T06:21:31.733Z,37.64
2023-06-04T06:24:34.516Z,37.41
2023-06-04T06:27:37.387Z,39.23
2023-06-04T06:30:40.864Z,40.00
2023-06-04T06:33:43.490Z,42.05
2023-06-04T06:36:45.943Z,43.49
2023-06-04T06:39:48.689Z,44.20
2023-06-04T06:42:54.383Z,43.99
2023-06-04T06:45:56.916Z,44.33
2023-06-04T06:48:59.595Z,44.81
2023-06-04T06:52:02.096Z,42.32
2023-06-04T06:55:05.839Z,41.11
2023-06-04T06:58:08.521Z,41.31
2023-06-04T07:01:11.439Z,40.44
2023-06-04T07:04:14.113Z,40.18
2023-06-04T07:07:18.773Z,39.93
2023-06-04T07:10:22.051Z,40.26
2023-06-04T07:13:24.728Z,41.04
2023-06-04T07:16:27.272Z,41.45
2023-06-04T07:19:29.786Z,42.32
2023-06-04T07:22:33.842Z,42.58
2023-06-04T07:25:36.406Z,42.84
2023-06-04T07:28:38.888Z,43.73
2023-06-04T07:31:42.744Z,42.61
2023-06-04T07:34:45.967Z,41.77
2023-06-04T07:37:50.156Z,42.06
2023-06-04T07:40:52.783Z,41.05
2023-06-04T07:43:55.455Z,40.28
2023-06-04T07:46:59.030Z,40.14
2023-06-04T07:50:03.494Z,39.89
2023-06-04T07:53:07.562Z,39.58
2023-06-04T07:56:10.108Z,38.27
2023-06-04T07:59:12.674Z,37.60
2023-06-04T08:02:16.176Z,37.97
2023-06-04T08:05:18.926Z,37.32
2023-06-04T08:08:21.452Z,36.99
2023-06-04T08:11:23.998Z,35.58
2023-06-04T08:14:28.293Z,35.13
2023-06-04T08:17:30.791Z,35.46
2023-06-04T08:20:33.337Z,34.81
2023-06-04T08:23:35.782Z,33.46
2023-06-04T08:26:38.450Z,32.37
2023-06-04T08:29:41.581Z,33.13
2023-06-04T08:32:44.217Z,32.03
2023-06-04T08:35:46.862Z,32.05
2023-06-04T08:38:52.917Z,31.13
2023-06-04T08:42:03.190Z,31.83
2023-06-04T08:45:07.117Z,31.88
2023-06-04T08:48:14.362Z,33.76
2023-06-04T08:51:17.744Z,33.89
2023-06-04T08:54:20.189Z,33.63
2023-06-04T08:57:22.877Z,32.78
2023-06-04T09:00:25.486Z,32.00
2023-06-04T09:03:29.283Z,32.12
2023-06-04T09:06:34.144Z,31.32
2023-06-04T09:09:40.024Z,31.70
2023-06-04T09:12:48.793Z,31.09
2023-06-04T09:16:04.720Z,31.34
2023-06-04T09:19:07.711Z,30.77
2023-06-04T09:22:10.203Z,30.52
2023-06-04T09:25:24.526Z,31.89
2023-06-04T09:28:31.694Z,30.75
2023-06-04T09:31:38.301Z,30.64
2023-06-04T09:34:46.260Z,29.25
2023-06-04T09:37:57.167Z,29.68
2023-06-04T09:41:01.873Z,29.03
2023-06-04T09:44:05.070Z,29.42
2023-06-04T09:47:07.644Z,29.78
2023-06-04T09:50:12.397Z,28.40
2023-06-04T09:53:19.521Z,28.23
2023-06-04T09:56:22.318Z,27.93
2023-06-04T09:59:26.916Z,28.15
2023-06-04T10:02:31.386Z,27.30
2023-06-04T10:05:35.562Z,27.30
2023-06-04T10:08:42.885Z,26.90
2023-06-04T10:11:52.153Z,27.25
2023-06-04T10:15:03.054Z,25.89
2023-06-04T10:18:07.271Z,25.10
2023-06-04T10:21:10.621Z,24.96
2023-06-04T10:24:15.570Z,25.25
2023-06-04T10:27:19.142Z,25.37
2023-06-04T10:30:21.830Z,26.10
2023-06-04T10:33:27.391Z,25.80
2023-06-04T10:36:30.074Z,25.68
2023-06-04T10:39:33.586Z,24.45
2023-06-04T10:42:43.953Z,23.54
2023-06-04T10:45:47.003Z,22.38
2023-06-04T10:48:54.205Z,21.54
2023-06-04T10:51:57.338Z,19.99
2023-06-04T10:55:07.949Z,21.85
2023-06-04T10:58:10.466Z,23.39
2023-06-04T11:01:14.783Z,21.65
2023-06-04T11:04:25.985Z,18.75
2023-06-04T11:07:28.596Z,17.14
2023-06-04T11:10:35.242Z,16.18
2023-06-04T11:13:37.656Z,16.12
2023-06-04T11:16:40.654Z,15.85
2023-06-04T11:19:43.449Z,16.10
2023-06-04T11:23:13.622Z,15.73
2023-06-04T11:26:16.242Z,15.03
2023-06-04T11:29:19.068Z,15.63
2023-06-04T11:32:26.024Z,17.66
2023-06-04T11:35:28.705Z,18.01
2023-06-04T11:38:31.199Z,20.34
2023-06-04T11:41:36.470Z,22.48
2023-06-04T11:44:39.722Z,24.31
2023-06-04T11:47:54.403Z,24.04
2023-06-04T11:50:57.606Z,23.57
2023-06-04T11:54:00.688Z,24.48
2023-06-04T11:57:05.702Z,23.71
2023-06-04T12:00:11.851Z,22.96
2023-06-04T12:03:14.752Z,23.73
2023-06-04T12:06:20.475Z,24.20
2023-06-04T12:09:30.503Z,25.24
2023-06-04T12:12:33.008Z,25.54
2023-06-04T12:15:35.621Z,25.80
2023-06-04T12:18:38.150Z,25.47
2023-06-04T12:21:40.936Z,25.20
2023-06-04T12:24:54.559Z,26.54
2023-06-04T12:27:57.572Z,26.34
2023-06-04T12:31:00.134Z,26.56
2023-06-04T12:34:02.747Z,27.16
2023-06-04T12:37:07.118Z,27.02
2023-06-04T12:40:10.230Z,28.59
2023-06-04T12:43:12.716Z,28.88
2023-06-04T12:46:15.348Z,29.08
2023-06-04T12:49:17.899Z,29.74
2023-06-04T12:52:20.479Z,29.89
2023-06-04T12:55:22.966Z,28.98
2023-06-04T12:58:25.424Z,29.96
2023-06-04T13:01:28.661Z,29.30
2023-06-04T13:04:31.376Z,27.88
2023-06-04T13:07:34.026Z,29.03
2023-06-04T13:10:36.815Z,28.52
2023-06-04T13:13:39.354Z,29.65
2023-06-04T13:16:42.326Z,29.15
2023-06-04T13:19:44.912Z,29.23
2023-06-04T13:22:48.270Z,28.65
2023-06-04T13:25:50.790Z,28.79
2023-06-04T13:28:53.590Z,28.86
2023-06-04T13:31:56.083Z,29.36
2023-06-04T13:34:58.743Z,28.99
2023-06-04T13:38:01.359Z,30.22
2023-06-04T13:41:04.008Z,29.97
2023-06-04T13:44:07.742Z,29.91
2023-06-04T13:47:10.278Z,30.37
2023-06-04T13:50:12.778Z,29.77
2023-06-04T13:53:15.381Z,29.56
2023-06-04T13:56:17.853Z,30.04
2023-06-04T13:59:20.459Z,29.91
2023-06-04T14:02:23.148Z,29.72
2023-06-04T14:05:28.549Z,29.45
2023-06-04T14:08:31.421Z,29.62
2023-06-04T14:11:34.452Z,29.34
2023-06-04T14:14:40.340Z,29.16
2023-06-04T14:17:43.200Z,30.45
2023-06-04T14:20:45.920Z,30.92
2023-06-04T14:23:48.437Z,31.29
2023-06-04T14:26:51.690Z,31.84
2023-06-04T14:29:54.129Z,32.38
2023-06-04T14:32:56.786Z,33.11
2023-06-04T14:35:59.337Z,35.42
2023-06-04T14:39:01.955Z,36.86
2023-06-04T14:42:04.708Z,37.43
2023-06-04T14:45:07.938Z,38.68
2023-06-04T14:48:14.725Z,40.02
2023-06-04T14:51:17.790Z,39.96
2023-06-04T14:54:20.302Z,39.97
2023-06-04T14:57:22.876Z,40.36
2023-06-04T15:00:25.673Z,40.64
2023-06-04T15:03:28.336Z,40.46
2023-06-04T15:06:31.152Z,41.49
2023-06-04T15:09:33.650Z,42.55
2023-06-04T15:12:39.190Z,44.25
2023-06-04T15:15:41.995Z,44.44
2023-06-04T15:18:44.949Z,44.77
2023-06-04T15:21:47.562Z,45.17
2023-06-04T15:24:50.341Z,43.50
2023-06-04T15:27:53.011Z,43.79
2023-06-04T15:30:55.831Z,43.22
2023-06-04T15:33:58.402Z,44.12
2023-06-04T15:37:00.866Z,44.37
2023-06-04T15:40:04.546Z,45.63
2023-06-04T15:43:07.319Z,44.60
2023-06-04T15:46:09.832Z,46.01
2023-06-04T15:49:12.413Z,45.49
2023-06-04T15:52:14.931Z,46.28
2023-06-04T15:55:17.522Z,46.21
2023-06-04T15:58:20.120Z,45.39
2023-06-04T16:01:22.903Z,45.68
2023-06-04T16:04:25.429Z,45.17
2023-06-04T16:07:27.904Z,44.84
2023-06-04T16:10:30.539Z,44.47
2023-06-04T16:13:33.042Z,44.70
2023-06-04T16:16:36.417Z,44.37
2023-06-04T16:19:39.015Z,44.07
2023-06-04T16:22:41.936Z,43.32
2023-06-04T16:25:44.455Z,43.17
2023-06-04T16:28:46.972Z,43.08
2023-06-04T16:31:49.781Z,42.38
2023-06-04T16:34:52.377Z,42.82
2023-06-04T16:37:55.142Z,43.34
2023-06-04T16:40:57.725Z,43.19
2023-06-04T16:44:00.247Z,43.16
2023-06-04T16:47:02.841Z,43.38
2023-06-04T16:50:07.164Z,44.01
2023-06-04T16:53:10.359Z,43.35
2023-06-04T16:56:12.941Z,43.80
2023-06-04T16:59:15.551Z,44.00
2023-06-04T17:02:18.481Z,43.89
2023-06-04T17:05:25.403Z,44.35
2023-06-04T17:08:28.444Z,45.87
2023-06-04T17:11:33.831Z,47.13
2023-06-04T17:14:36.637Z,47.95
2023-06-04T17:17:39.165Z,48.77
2023-06-04T17:20:41.749Z,49.16
2023-06-04T17:23:48.891Z,50.31
2023-06-04T17:26:52.079Z,50.61
2023-06-04T17:29:54.585Z,50.65
2023-06-04T17:32:57.267Z,50.67
2023-06-04T17:35:59.887Z,50.89
2023-06-04T17:39:02.618Z,51.13
2023-06-04T17:42:05.792Z,50.78
2023-06-04T17:45:11.334Z,51.05
2023-06-04T17:48:13.910Z,51.17
2023-06-04T17:51:16.631Z,51.34
2023-06-04T17:54:19.459Z,51.50
2023-06-04T17:57:22.049Z,51.07
2023-06-04T18:00:24.572Z,50.81
2023-06-04T18:03:27.192Z,50.29
2023-06-04T18:06:29.766Z,50.22
2023-06-04T18:09:32.262Z,49.67
2023-06-04T18:12:38.417Z,49.30
2023-06-04T18:15:40.897Z,49.26
2023-06-04T18:18:43.947Z,48.90
2023-06-04T18:21:46.463Z,49.10
2023-06-04T18:24:49.174Z,49.49
2023-06-04T18:27:51.854Z,49.35
2023-06-04T18:30:54.541Z,49.41
2023-06-04T18:34:02.839Z,49.69
2023-06-04T18:37:06.096Z,50.48
2023-06-04T18:40:11.658Z,50.51
2023-06-04T18:43:15.538Z,50.27
2023-06-04T18:46:19.309Z,50.46
2023-06-04T18:49:23.052Z,50.67
2023-06-04T18:52:25.858Z,51.38
2023-06-04T18:55:28.431Z,51.65
2023-06-04T18:58:30.910Z,52.05
2023-06-04T19:01:33.479Z,52.39
2023-06-04T19:04:36.194Z,52.80
2023-06-04T19:07:40.979Z,52.70
2023-06-04T19:10:46.614Z,52.91
2023-06-04T19:13:49.657Z,53.58
2023-06-04T19:16:52.559Z,53.23
2023-06-04T19:19:56.002Z,53.74
2023-06-04T19:22:58.731Z,53.92
2023-06-04T19:26:01.890Z,53.70
2023-06-04T19:29:04.557Z,53.68
2023-06-04T19:32:07.479Z,54.07
2023-06-04T19:35:10.268Z,54.42
2023-06-04T19:38:13.022Z,54.13
2023-06-04T19:41:15.603Z,54.10
2023-06-04T19:44:18.553Z,54.57
2023-06-04T19:47:21.246Z,54.81
2023-06-04T19:50:23.923Z,54.71
2023-06-04T19:53:26.526Z,54.70
2023-06-04T19:56:29.271Z,54.92
2023-06-04T19:59:32.215Z,55.32
2023-06-04T20:02:36.060Z,55.37
2023-06-04T20:05:38.796Z,55.80
2023-06-04T20:08:41.337Z,55.51
2023-06-04T20:11:43.904Z,55.78
2023-06-04T20:14:47.285Z,55.40
2023-06-04T20:17:49.836Z,54.89
2023-06-04T20:20:53.375Z,55.05
2023-06-04T20:23:56.326Z,55.20
2023-06-04T20:26:58.829Z,54.61
2023-06-04T20:30:01.432Z,54.11
2023-06-04T20:33:04.201Z,54.15
2023-06-04T20:36:09.540Z,54.27
2023-06-04T20:39:12.385Z,54.28
2023-06-04T20:42:14.842Z,54.40
2023-06-04T20:45:17.748Z,54.56
2023-06-04T20:48:20.192Z,54.80
2023-06-04T20:51:22.712Z,54.87
2023-06-04T20:54:25.255Z,54.79
2023-06-04T20:57:27.837Z,55.48
2023-06-04T21:00:32.649Z,55.45
2023-06-04T21:03:35.292Z,56.28
2023-06-04T21:06:38.519Z,56.76
2023-06-04T21:09:41.401Z,56.91
2023-06-04T21:12:43.874Z,57.21
2023-06-04T21:15:46.588Z,57.70
2023-06-04T21:18:52.420Z,57.71
2023-06-04T21:21:54.902Z,57.93
2023-06-04T21:24:57.447Z,57.92
2023-06-04T21:28:00.038Z,58.45
2023-06-04T21:31:02.595Z,58.13
2023-06-04T21:34:05.102Z,58.61
2023-06-04T21:37:07.690Z,58.60
2023-06-04T21:40:10.561Z,58.87
2023-06-04T21:43:13.178Z,59.30
2023-06-04T21:46:16.232Z,58.86
2023-06-04T21:49:18.807Z,58.75
2023-06-04T21:52:25.580Z,59.19
2023-06-04T21:55:28.865Z,59.01
2023-06-04T21:58:31.447Z,58.65
2023-06-04T22:01:34.036Z,58.28
2023-06-04T22:04:36.598Z,58.43
2023-06-04T22:07:39.120Z,58.44
2023-06-04T22:10:41.615Z,58.33
2023-06-04T22:13:44.432Z,58.37
2023-06-04T22:16:46.872Z,58.16
2023-06-04T22:19:49.532Z,57.91
2023-06-04T22:22:52.075Z,57.54
2023-06-04T22:25:54.689Z,57.57
2023-06-04T22:28:57.194Z,57.53
2023-06-04T22:31:59.746Z,57.24
2023-06-04T22:35:02.244Z,57.29
2023-06-04T22:38:04.807Z,56.78
2023-06-04T22:41:07.520Z,57.00
2023-06-04T22:44:10.221Z,56.93
2023-06-04T22:47:13.094Z,56.81
2023-06-04T22:50:16.001Z,56.66
2023-06-04T22:53:20.030Z,56.79
2023-06-04T22:56:23.086Z,56.43
2023-06-04T22:59:27.526Z,56.54
2023-06-04T23:02:30.157Z,56.65
2023-06-04T23:05:33.352Z,56.30
2023-06-04T23:08:35.883Z,56.43
2023-06-04T23:11:38.306Z,56.50
2023-06-04T23:14:41.041Z,56.23
2023-06-04T23:17:43.503Z,56.54
2023-06-04T23:20:46.138Z,56.92
2023-06-04T23:23:48.705Z,57.23
2023-06-04T23:26:52.110Z,57.76
2023-06-04T23:29:54.621Z,57.62
2023-06-04T23:32:59.177Z,58.41
2023-06-04T23:36:01.793Z,59.03
2023-06-04T23:39:04.989Z,59.34
2023-06-04T23:42:07.573Z,59.39
2023-06-04T23:45:10.714Z,59.55
2023-06-04T23:48:13.194Z,59.32
2023-06-04T23:51:15.639Z,59.46
2023-06-04T23:54:21.288Z,59.19
2023-06-04T23:57:23.797Z,58.83
